sensor_id;sensor_type;location;lat;lon;timestamp;P1;durP1;ratioP1;P2;durP2;ratioP2
15408;SDS011;7803;48.130;13.788;2023-05-20T00:00:25;5.20;;;4.43;;
15408;SDS011;7803;48.130;13.788;2023-05-20T00:03:27;4.88;;;4.28;;
15408;SDS011;7803;48.130;13.788;2023-05-20T00:06:29;4.70;;;4.30;;
15408;SDS011;7803;48.130;13.788;2023-05-20T00:09:34;5.05;;;4.55;;
15408;SDS011;7803;48.130;13.788;2023-05-20T00:12:36;6.07;;;4.53;;
15408;SDS011;7803;48.130;13.788;2023-05-20T00:15:38;6.20;;;4.97;;
15408;SDS011;7803;48.130;13.788;2023-05-20T00:18:40;5.75;;;5.05;;
15408;SDS011;7803;48.130;13.788;2023-05-20T00:21:42;4.78;;;4.35;;
15408;SDS011;7803;48.130;13.788;2023-05-20T00:24:46;4.85;;;4.43;;
15408;SDS011;7803;48.130;13.788;2023-05-20T00:27:48;5.15;;;4.65;;
15408;SDS011;7803;48.130;13.788;2023-05-20T00:30:49;5.85;;;5.00;;
15408;SDS011;7803;48.130;13.788;2023-05-20T00:33:51;5.47;;;4.97;;
15408;SDS011;7803;48.130;13.788;2023-05-20T00:36:53;5.35;;;4.50;;
15408;SDS011;7803;48.130;13.788;2023-05-20T00:39:57;4.80;;;4.40;;
15408;SDS011;7803;48.130;13.788;2023-05-20T00:42:59;4.93;;;4.53;;
15408;SDS011;7803;48.130;13.788;2023-05-20T00:46:01;5.78;;;4.55;;
15408;SDS011;7803;48.130;13.788;2023-05-20T00:49:03;5.05;;;4.45;;
15408;SDS011;7803;48.130;13.788;2023-05-20T00:52:05;4.88;;;4.47;;
15408;SDS011;7803;48.130;13.788;2023-05-20T00:55:10;4.85;;;4.38;;
15408;SDS011;7803;48.130;13.788;2023-05-20T00:58:12;5.13;;;4.63;;
15408;SDS011;7803;48.130;13.788;2023-05-20T01:01:14;5.03;;;4.55;;
15408;SDS011;7803;48.130;13.788;2023-05-20T01:04:16;5.13;;;4.60;;
15408;SDS011;7803;48.130;13.788;2023-05-20T01:07:18;5.10;;;4.57;;
15408;SDS011;7803;48.130;13.788;2023-05-20T01:10:22;5.55;;;4.80;;
15408;SDS011;7803;48.130;13.788;2023-05-20T01:13:31;4.82;;;4.32;;
15408;SDS011;7803;48.130;13.788;2023-05-20T01:16:37;5.10;;;4.32;;
15408;SDS011;7803;48.130;13.788;2023-05-20T01:19:40;4.95;;;4.55;;
15408;SDS011;7803;48.130;13.788;2023-05-20T01:22:47;4.85;;;4.45;;
15408;SDS011;7803;48.130;13.788;2023-05-20T01:25:52;4.53;;;4.13;;
15408;SDS011;7803;48.130;13.788;2023-05-20T01:28:55;5.07;;;4.57;;
15408;SDS011;7803;48.130;13.788;2023-05-20T01:32:04;4.75;;;4.35;;
15408;SDS011;7803;48.130;13.788;2023-05-20T01:35:09;5.20;;;4.30;;
15408;SDS011;7803;48.130;13.788;2023-05-20T01:38:13;4.85;;;4.45;;
15408;SDS011;7803;48.130;13.788;2023-05-20T01:41:17;4.78;;;4.38;;
15408;SDS011;7803;48.130;13.788;2023-05-20T01:44:21;5.90;;;4.40;;
15408;SDS011;7803;48.130;13.788;2023-05-20T01:47:23;5.05;;;4.32;;
15408;SDS011;7803;48.130;13.788;2023-05-20T01:50:25;4.60;;;4.20;;
15408;SDS011;7803;48.130;13.788;2023-05-20T01:53:28;4.90;;;4.50;;
15408;SDS011;7803;48.130;13.788;2023-05-20T01:56:30;5.25;;;4.75;;
15408;SDS011;7803;48.130;13.788;2023-05-20T01:59:32;4.88;;;4.47;;
15408;SDS011;7803;48.130;13.788;2023-05-20T02:02:34;4.93;;;4.43;;
15408;SDS011;7803;48.130;13.788;2023-05-20T02:05:36;5.18;;;4.60;;
15408;SDS011;7803;48.130;13.788;2023-05-20T02:08:40;6.38;;;4.97;;
15408;SDS011;7803;48.130;13.788;2023-05-20T02:11:42;4.80;;;4.40;;
15408;SDS011;7803;48.130;13.788;2023-05-20T02:14:44;4.63;;;4.22;;
15408;SDS011;7803;48.130;13.788;2023-05-20T02:17:48;4.88;;;4.38;;
15408;SDS011;7803;48.130;13.788;2023-05-20T02:20:50;5.18;;;4.68;;
15408;SDS011;7803;48.130;13.788;2023-05-20T02:23:53;5.38;;;4.60;;
15408;SDS011;7803;48.130;13.788;2023-05-20T02:26:55;5.28;;;4.78;;
15408;SDS011;7803;48.130;13.788;2023-05-20T02:29:58;5.82;;;5.28;;
15408;SDS011;7803;48.130;13.788;2023-05-20T02:33:01;5.25;;;4.82;;
15408;SDS011;7803;48.130;13.788;2023-05-20T02:36:03;5.15;;;4.45;;
15408;SDS011;7803;48.130;13.788;2023-05-20T02:39:07;5.75;;;5.10;;
15408;SDS011;7803;48.130;13.788;2023-05-20T02:42:09;5.13;;;4.68;;
15408;SDS011;7803;48.130;13.788;2023-05-20T02:45:12;5.20;;;4.80;;
15408;SDS011;7803;48.130;13.788;2023-05-20T02:48:14;5.53;;;4.97;;
15408;SDS011;7803;48.130;13.788;2023-05-20T02:51:16;5.05;;;4.65;;
15408;SDS011;7803;48.130;13.788;2023-05-20T02:54:19;5.72;;;4.75;;
15408;SDS011;7803;48.130;13.788;2023-05-20T02:57:21;5.50;;;4.80;;
15408;SDS011;7803;48.130;13.788;2023-05-20T03:00:23;5.20;;;4.70;;
15408;SDS011;7803;48.130;13.788;2023-05-20T03:03:27;5.47;;;4.97;;
15408;SDS011;7803;48.130;13.788;2023-05-20T03:06:29;5.60;;;5.10;;
15408;SDS011;7803;48.130;13.788;2023-05-20T03:09:33;5.60;;;5.10;;
15408;SDS011;7803;48.130;13.788;2023-05-20T03:12:35;5.50;;;5.00;;
15408;SDS011;7803;48.130;13.788;2023-05-20T03:15:37;5.10;;;4.57;;
15408;SDS011;7803;48.130;13.788;2023-05-20T03:18:39;5.45;;;4.95;;
15408;SDS011;7803;48.130;13.788;2023-05-20T03:21:41;5.60;;;5.10;;
15408;SDS011;7803;48.130;13.788;2023-05-20T03:24:47;5.40;;;4.85;;
15408;SDS011;7803;48.130;13.788;2023-05-20T03:27:48;5.70;;;5.03;;
15408;SDS011;7803;48.130;13.788;2023-05-20T03:30:50;5.75;;;5.18;;
15408;SDS011;7803;48.130;13.788;2023-05-20T03:33:52;5.57;;;5.07;;
15408;SDS011;7803;48.130;13.788;2023-05-20T03:36:54;5.30;;;4.80;;
15408;SDS011;7803;48.130;13.788;2023-05-20T03:40:00;5.82;;;5.22;;
15408;SDS011;7803;48.130;13.788;2023-05-20T03:43:05;6.10;;;5.50;;
15408;SDS011;7803;48.130;13.788;2023-05-20T03:46:07;5.63;;;5.03;;
15408;SDS011;7803;48.130;13.788;2023-05-20T03:49:08;5.57;;;5.07;;
15408;SDS011;7803;48.130;13.788;2023-05-20T03:52:10;5.63;;;5.10;;
15408;SDS011;7803;48.130;13.788;2023-05-20T03:55:14;5.78;;;5.03;;
15408;SDS011;7803;48.130;13.788;2023-05-20T03:58:16;6.05;;;5.40;;
15408;SDS011;7803;48.130;13.788;2023-05-20T04:01:19;6.75;;;5.53;;
15408;SDS011;7803;48.130;13.788;2023-05-20T04:04:24;6.88;;;5.45;;
15408;SDS011;7803;48.130;13.788;2023-05-20T04:07:26;6.25;;;5.65;;
15408;SDS011;7803;48.130;13.788;2023-05-20T04:10:30;6.60;;;5.35;;
15408;SDS011;7803;48.130;13.788;2023-05-20T04:13:32;6.53;;;4.78;;
15408;SDS011;7803;48.130;13.788;2023-05-20T04:16:34;7.78;;;4.95;;
15408;SDS011;7803;48.130;13.788;2023-05-20T04:19:36;10.00;;;5.50;;
15408;SDS011;7803;48.130;13.788;2023-05-20T04:22:38;5.85;;;5.18;;
15408;SDS011;7803;48.130;13.788;2023-05-20T04:25:41;8.90;;;5.57;;
15408;SDS011;7803;48.130;13.788;2023-05-20T04:28:43;6.30;;;5.00;;
15408;SDS011;7803;48.130;13.788;2023-05-20T04:31:47;7.70;;;5.45;;
15408;SDS011;7803;48.130;13.788;2023-05-20T04:34:49;7.85;;;5.68;;
15408;SDS011;7803;48.130;13.788;2023-05-20T04:37:53;5.63;;;5.13;;
15408;SDS011;7803;48.130;13.788;2023-05-20T04:40:56;6.32;;;5.18;;
15408;SDS011;7803;48.130;13.788;2023-05-20T04:43:58;7.75;;;5.65;;
15408;SDS011;7803;48.130;13.788;2023-05-20T04:47:00;6.28;;;5.38;;
15408;SDS011;7803;48.130;13.788;2023-05-20T04:50:04;6.28;;;5.30;;
15408;SDS011;7803;48.130;13.788;2023-05-20T04:53:09;6.03;;;5.30;;
15408;SDS011;7803;48.130;13.788;2023-05-20T04:56:13;7.32;;;5.55;;
15408;SDS011;7803;48.130;13.788;2023-05-20T04:59:15;7.45;;;5.70;;
15408;SDS011;7803;48.130;13.788;2023-05-20T05:02:17;5.97;;;5.25;;
15408;SDS011;7803;48.130;13.788;2023-05-20T05:05:19;6.30;;;5.70;;
15408;SDS011;7803;48.130;13.788;2023-05-20T05:08:21;6.63;;;5.57;;
15408;SDS011;7803;48.130;13.788;2023-05-20T05:11:24;7.13;;;5.80;;
15408;SDS011;7803;48.130;13.788;2023-05-20T05:14:26;6.65;;;5.97;;
15408;SDS011;7803;48.130;13.788;2023-05-20T05:17:28;6.93;;;6.18;;
15408;SDS011;7803;48.130;13.788;2023-05-20T05:20:30;8.50;;;5.65;;
15408;SDS011;7803;48.130;13.788;2023-05-20T05:23:32;6.93;;;5.78;;
15408;SDS011;7803;48.130;13.788;2023-05-20T05:26:36;6.72;;;6.03;;
15408;SDS011;7803;48.130;13.788;2023-05-20T05:29:38;6.78;;;6.15;;
15408;SDS011;7803;48.130;13.788;2023-05-20T05:32:40;5.97;;;5.15;;
15408;SDS011;7803;48.130;13.788;2023-05-20T05:35:42;6.63;;;6.03;;
15408;SDS011;7803;48.130;13.788;2023-05-20T05:38:44;6.85;;;5.40;;
15408;SDS011;7803;48.130;13.788;2023-05-20T05:41:47;6.50;;;5.90;;
15408;SDS011;7803;48.130;13.788;2023-05-20T05:44:49;6.18;;;5.68;;
15408;SDS011;7803;48.130;13.788;2023-05-20T05:47:51;6.35;;;5.75;;
15408;SDS011;7803;48.130;13.788;2023-05-20T05:50:53;6.68;;;6.00;;
15408;SDS011;7803;48.130;13.788;2023-05-20T05:53:55;6.82;;;6.15;;
15408;SDS011;7803;48.130;13.788;2023-05-20T05:56:59;6.32;;;5.68;;
15408;SDS011;7803;48.130;13.788;2023-05-20T06:00:01;6.55;;;5.95;;
15408;SDS011;7803;48.130;13.788;2023-05-20T06:03:03;6.90;;;6.20;;
15408;SDS011;7803;48.130;13.788;2023-05-20T06:06:05;6.82;;;6.18;;
15408;SDS011;7803;48.130;13.788;2023-05-20T06:09:07;6.80;;;6.20;;
15408;SDS011;7803;48.130;13.788;2023-05-20T06:12:11;6.63;;;6.03;;
15408;SDS011;7803;48.130;13.788;2023-05-20T06:15:13;6.28;;;5.68;;
15408;SDS011;7803;48.130;13.788;2023-05-20T06:18:15;6.57;;;5.95;;
15408;SDS011;7803;48.130;13.788;2023-05-20T06:21:17;6.78;;;6.10;;
15408;SDS011;7803;48.130;13.788;2023-05-20T06:24:19;7.28;;;6.57;;
15408;SDS011;7803;48.130;13.788;2023-05-20T06:27:22;6.38;;;5.78;;
15408;SDS011;7803;48.130;13.788;2023-05-20T06:30:24;6.65;;;6.05;;
15408;SDS011;7803;48.130;13.788;2023-05-20T06:33:26;6.50;;;5.90;;
15408;SDS011;7803;48.130;13.788;2023-05-20T06:36:28;6.68;;;6.00;;
15408;SDS011;7803;48.130;13.788;2023-05-20T06:39:30;6.82;;;6.10;;
15408;SDS011;7803;48.130;13.788;2023-05-20T06:42:34;6.75;;;6.15;;
15408;SDS011;7803;48.130;13.788;2023-05-20T06:45:36;6.70;;;6.10;;
15408;SDS011;7803;48.130;13.788;2023-05-20T06:48:38;7.50;;;6.32;;
15408;SDS011;7803;48.130;13.788;2023-05-20T06:51:40;6.05;;;5.55;;
15408;SDS011;7803;48.130;13.788;2023-05-20T06:54:43;6.97;;;6.28;;
15408;SDS011;7803;48.130;13.788;2023-05-20T06:57:46;6.53;;;5.93;;
15408;SDS011;7803;48.130;13.788;2023-05-20T07:00:48;6.80;;;6.10;;
15408;SDS011;7803;48.130;13.788;2023-05-20T07:03:50;6.30;;;5.70;;
15408;SDS011;7803;48.130;13.788;2023-05-20T07:06:52;6.72;;;6.13;;
15408;SDS011;7803;48.130;13.788;2023-05-20T07:09:54;6.60;;;6.00;;
15408;SDS011;7803;48.130;13.788;2023-05-20T07:12:57;6.80;;;6.20;;
15408;SDS011;7803;48.130;13.788;2023-05-20T07:15:59;6.57;;;5.97;;
15408;SDS011;7803;48.130;13.788;2023-05-20T07:19:01;6.28;;;5.75;;
15408;SDS011;7803;48.130;13.788;2023-05-20T07:22:04;6.57;;;5.97;;
15408;SDS011;7803;48.130;13.788;2023-05-20T07:25:06;7.10;;;6.40;;
15408;SDS011;7803;48.130;13.788;2023-05-20T07:28:10;6.13;;;5.60;;
15408;SDS011;7803;48.130;13.788;2023-05-20T07:31:12;6.40;;;5.88;;
15408;SDS011;7803;48.130;13.788;2023-05-20T07:34:14;7.07;;;6.38;;
15408;SDS011;7803;48.130;13.788;2023-05-20T07:37:16;6.70;;;6.10;;
15408;SDS011;7803;48.130;13.788;2023-05-20T07:40:18;6.60;;;6.00;;
15408;SDS011;7803;48.130;13.788;2023-05-20T07:43:27;6.40;;;5.80;;
15408;SDS011;7803;48.130;13.788;2023-05-20T07:46:29;6.88;;;6.18;;
15408;SDS011;7803;48.130;13.788;2023-05-20T07:49:31;6.25;;;5.75;;
15408;SDS011;7803;48.130;13.788;2023-05-20T07:52:33;6.72;;;6.13;;
15408;SDS011;7803;48.130;13.788;2023-05-20T07:55:35;6.35;;;5.75;;
15408;SDS011;7803;48.130;13.788;2023-05-20T07:58:39;6.20;;;5.63;;
15408;SDS011;7803;48.130;13.788;2023-05-20T08:01:42;6.75;;;6.15;;
15408;SDS011;7803;48.130;13.788;2023-05-20T08:04:44;6.57;;;5.97;;
15408;SDS011;7803;48.130;13.788;2023-05-20T08:07:46;6.35;;;5.75;;
15408;SDS011;7803;48.130;13.788;2023-05-20T08:10:49;6.45;;;5.80;;
15408;SDS011;7803;48.130;13.788;2023-05-20T08:13:53;6.75;;;6.05;;
15408;SDS011;7803;48.130;13.788;2023-05-20T08:16:55;6.95;;;6.28;;
15408;SDS011;7803;48.130;13.788;2023-05-20T08:19:57;6.97;;;6.38;;
15408;SDS011;7803;48.130;13.788;2023-05-20T08:22:59;6.47;;;5.97;;
15408;SDS011;7803;48.130;13.788;2023-05-20T08:26:00;6.85;;;6.25;;
15408;SDS011;7803;48.130;13.788;2023-05-20T08:29:04;6.35;;;5.75;;
15408;SDS011;7803;48.130;13.788;2023-05-20T08:32:07;6.68;;;6.05;;
15408;SDS011;7803;48.130;13.788;2023-05-20T08:35:09;6.63;;;6.03;;
15408;SDS011;7803;48.130;13.788;2023-05-20T08:38:12;6.82;;;6.22;;
15408;SDS011;7803;48.130;13.788;2023-05-20T08:41:14;6.22;;;5.72;;
15408;SDS011;7803;48.130;13.788;2023-05-20T08:44:17;6.03;;;5.53;;
15408;SDS011;7803;48.130;13.788;2023-05-20T08:47:21;6.55;;;5.95;;
15408;SDS011;7803;48.130;13.788;2023-05-20T08:50:23;6.15;;;5.55;;
15408;SDS011;7803;48.130;13.788;2023-05-20T08:53:25;6.45;;;5.95;;
15408;SDS011;7803;48.130;13.788;2023-05-20T08:56:27;6.53;;;5.93;;
15408;SDS011;7803;48.130;13.788;2023-05-20T08:59:32;6.57;;;5.97;;
15408;SDS011;7803;48.130;13.788;2023-05-20T09:02:35;6.68;;;6.07;;
15408;SDS011;7803;48.130;13.788;2023-05-20T09:05:37;6.97;;;6.28;;
15408;SDS011;7803;48.130;13.788;2023-05-20T09:08:39;6.72;;;6.13;;
15408;SDS011;7803;48.130;13.788;2023-05-20T09:11:43;6.55;;;5.80;;
15408;SDS011;7803;48.130;13.788;2023-05-20T09:14:47;6.40;;;5.80;;
15408;SDS011;7803;48.130;13.788;2023-05-20T09:17:49;6.50;;;5.90;;
15408;SDS011;7803;48.130;13.788;2023-05-20T09:20:51;6.57;;;5.97;;
15408;SDS011;7803;48.130;13.788;2023-05-20T09:23:53;6.07;;;5.57;;
15408;SDS011;7803;48.130;13.788;2023-05-20T09:27:01;6.50;;;5.90;;
15408;SDS011;7803;48.130;13.788;2023-05-20T09:30:07;6.38;;;5.78;;
15408;SDS011;7803;48.130;13.788;2023-05-20T09:33:11;6.47;;;5.88;;
15408;SDS011;7803;48.130;13.788;2023-05-20T09:36:13;6.45;;;5.90;;
15408;SDS011;7803;48.130;13.788;2023-05-20T09:39:18;6.68;;;5.32;;
15408;SDS011;7803;48.130;13.788;2023-05-20T09:42:26;6.28;;;5.78;;
15408;SDS011;7803;48.130;13.788;2023-05-20T09:45:34;6.80;;;6.07;;
15408;SDS011;7803;48.130;13.788;2023-05-20T09:48:36;6.35;;;5.78;;
15408;SDS011;7803;48.130;13.788;2023-05-20T09:51:38;6.07;;;5.57;;
15408;SDS011;7803;48.130;13.788;2023-05-20T09:54:42;6.38;;;5.78;;
15408;SDS011;7803;48.130;13.788;2023-05-20T09:57:45;6.00;;;5.50;;
15408;SDS011;7803;48.130;13.788;2023-05-20T10:00:49;6.53;;;5.93;;
15408;SDS011;7803;48.130;13.788;2023-05-20T10:03:51;6.85;;;6.15;;
15408;SDS011;7803;48.130;13.788;2023-05-20T10:10:22;6.65;;;6.05;;
15408;SDS011;7803;48.130;13.788;2023-05-20T10:13:37;6.30;;;5.80;;
15408;SDS011;7803;48.130;13.788;2023-05-20T10:16:55;6.13;;;5.57;;
15408;SDS011;7803;48.130;13.788;2023-05-20T10:20:07;6.57;;;5.97;;
15408;SDS011;7803;48.130;13.788;2023-05-20T10:23:19;7.13;;;6.50;;
15408;SDS011;7803;48.130;13.788;2023-05-20T10:26:22;7.72;;;6.85;;
15408;SDS011;7803;48.130;13.788;2023-05-20T10:29:24;7.82;;;7.15;;
15408;SDS011;7803;48.130;13.788;2023-05-20T10:32:28;8.48;;;7.40;;
15408;SDS011;7803;48.130;13.788;2023-05-20T10:35:31;9.02;;;8.02;;
15408;SDS011;7803;48.130;13.788;2023-05-20T10:38:33;9.05;;;8.10;;
15408;SDS011;7803;48.130;13.788;2023-05-20T10:41:35;12.60;;;8.98;;
15408;SDS011;7803;48.130;13.788;2023-05-20T10:44:40;10.18;;;8.95;;
15408;SDS011;7803;48.130;13.788;2023-05-20T10:47:53;11.20;;;9.30;;
15408;SDS011;7803;48.130;13.788;2023-05-20T10:50:56;12.05;;;9.73;;
15408;SDS011;7803;48.130;13.788;2023-05-20T10:54:02;12.43;;;10.27;;
15408;SDS011;7803;48.130;13.788;2023-05-20T10:57:05;10.18;;;9.02;;
15408;SDS011;7803;48.130;13.788;2023-05-20T11:00:08;12.82;;;9.73;;
15408;SDS011;7803;48.130;13.788;2023-05-20T11:03:12;11.63;;;10.43;;
15408;SDS011;7803;48.130;13.788;2023-05-20T11:06:16;11.50;;;10.30;;
15408;SDS011;7803;48.130;13.788;2023-05-20T11:09:18;12.23;;;10.25;;
15408;SDS011;7803;48.130;13.788;2023-05-20T11:12:20;12.85;;;10.48;;
15408;SDS011;7803;48.130;13.788;2023-05-20T11:15:23;12.20;;;10.50;;
15408;SDS011;7803;48.130;13.788;2023-05-20T11:18:27;13.00;;;10.15;;
15408;SDS011;7803;48.130;13.788;2023-05-20T11:21:31;11.35;;;10.13;;
15408;SDS011;7803;48.130;13.788;2023-05-20T11:24:33;11.57;;;10.38;;
15408;SDS011;7803;48.130;13.788;2023-05-20T11:27:37;12.48;;;10.93;;
15408;SDS011;7803;48.130;13.788;2023-05-20T11:30:40;13.52;;;10.82;;
15408;SDS011;7803;48.130;13.788;2023-05-20T11:33:44;12.23;;;10.38;;
15408;SDS011;7803;48.130;13.788;2023-05-20T11:36:46;12.38;;;10.70;;
15408;SDS011;7803;48.130;13.788;2023-05-20T11:40:01;11.30;;;10.20;;
15408;SDS011;7803;48.130;13.788;2023-05-20T11:43:06;12.25;;;9.80;;
15408;SDS011;7803;48.130;13.788;2023-05-20T11:46:12;11.15;;;9.95;;
15408;SDS011;7803;48.130;13.788;2023-05-20T11:49:15;10.70;;;9.63;;
15408;SDS011;7803;48.130;13.788;2023-05-20T11:52:18;10.32;;;9.23;;
15408;SDS011;7803;48.130;13.788;2023-05-20T11:55:20;12.25;;;9.88;;
15408;SDS011;7803;48.130;13.788;2023-05-20T11:58:22;12.40;;;10.00;;
15408;SDS011;7803;48.130;13.788;2023-05-20T12:01:25;11.13;;;9.93;;
15408;SDS011;7803;48.130;13.788;2023-05-20T12:04:29;11.32;;;9.90;;
15408;SDS011;7803;48.130;13.788;2023-05-20T12:07:31;12.02;;;9.88;;
15408;SDS011;7803;48.130;13.788;2023-05-20T12:10:33;11.73;;;9.90;;
15408;SDS011;7803;48.130;13.788;2023-05-20T12:13:37;11.57;;;9.93;;
15408;SDS011;7803;48.130;13.788;2023-05-20T12:16:39;11.15;;;9.48;;
15408;SDS011;7803;48.130;13.788;2023-05-20T12:19:43;10.13;;;9.15;;
15408;SDS011;7803;48.130;13.788;2023-05-20T12:22:45;10.52;;;9.43;;
15408;SDS011;7803;48.130;13.788;2023-05-20T12:25:47;10.55;;;8.93;;
15408;SDS011;7803;48.130;13.788;2023-05-20T12:28:49;11.50;;;9.82;;
15408;SDS011;7803;48.130;13.788;2023-05-20T12:31:51;11.50;;;9.73;;
15408;SDS011;7803;48.130;13.788;2023-05-20T12:34:55;10.65;;;9.35;;
15408;SDS011;7803;48.130;13.788;2023-05-20T12:37:57;10.20;;;9.10;;
15408;SDS011;7803;48.130;13.788;2023-05-20T12:41:00;12.77;;;10.00;;
15408;SDS011;7803;48.130;13.788;2023-05-20T12:44:02;12.05;;;9.27;;
15408;SDS011;7803;48.130;13.788;2023-05-20T12:47:04;10.68;;;9.48;;
15408;SDS011;7803;48.130;13.788;2023-05-20T12:50:09;10.52;;;9.30;;
15408;SDS011;7803;48.130;13.788;2023-05-20T12:53:11;12.15;;;9.52;;
15408;SDS011;7803;48.130;13.788;2023-05-20T12:56:13;11.32;;;9.32;;
15408;SDS011;7803;48.130;13.788;2023-05-20T12:59:15;12.38;;;8.75;;
15408;SDS011;7803;48.130;13.788;2023-05-20T13:02:17;11.48;;;9.30;;
15408;SDS011;7803;48.130;13.788;2023-05-20T13:05:21;12.35;;;9.25;;
15408;SDS011;7803;48.130;13.788;2023-05-20T13:08:23;11.20;;;9.23;;
15408;SDS011;7803;48.130;13.788;2023-05-20T13:11:25;11.80;;;9.00;;
15408;SDS011;7803;48.130;13.788;2023-05-20T13:14:28;13.38;;;9.95;;
15408;SDS011;7803;48.130;13.788;2023-05-20T13:17:30;14.30;;;9.13;;
15408;SDS011;7803;48.130;13.788;2023-05-20T13:20:34;11.75;;;9.50;;
15408;SDS011;7803;48.130;13.788;2023-05-20T13:23:37;10.07;;;9.07;;
15408;SDS011;7803;48.130;13.788;2023-05-20T13:26:40;13.02;;;9.50;;
15408;SDS011;7803;48.130;13.788;2023-05-20T13:29:42;11.52;;;8.52;;
15408;SDS011;7803;48.130;13.788;2023-05-20T13:32:45;9.93;;;8.90;;
15408;SDS011;7803;48.130;13.788;2023-05-20T13:35:48;10.98;;;8.90;;
15408;SDS011;7803;48.130;13.788;2023-05-20T13:38:50;10.88;;;8.32;;
15408;SDS011;7803;48.130;13.788;2023-05-20T13:41:52;9.95;;;8.93;;
15408;SDS011;7803;48.130;13.788;2023-05-20T13:44:54;11.75;;;9.80;;
15408;SDS011;7803;48.130;13.788;2023-05-20T13:47:56;11.65;;;8.13;;
15408;SDS011;7803;48.130;13.788;2023-05-20T13:50:59;10.55;;;8.25;;
15408;SDS011;7803;48.130;13.788;2023-05-20T13:54:02;10.27;;;8.70;;
15408;SDS011;7803;48.130;13.788;2023-05-20T13:57:05;9.02;;;7.95;;
15408;SDS011;7803;48.130;13.788;2023-05-20T14:00:08;10.68;;;8.48;;
15408;SDS011;7803;48.130;13.788;2023-05-20T14:03:10;9.73;;;8.43;;
15408;SDS011;7803;48.130;13.788;2023-05-20T14:06:14;9.95;;;8.52;;
15408;SDS011;7803;48.130;13.788;2023-05-20T14:09:17;10.27;;;8.25;;
15408;SDS011;7803;48.130;13.788;2023-05-20T14:12:19;11.85;;;8.32;;
15408;SDS011;7803;48.130;13.788;2023-05-20T14:15:23;9.10;;;7.88;;
15408;SDS011;7803;48.130;13.788;2023-05-20T14:18:25;11.25;;;8.27;;
15408;SDS011;7803;48.130;13.788;2023-05-20T14:21:28;10.63;;;8.20;;
15408;SDS011;7803;48.130;13.788;2023-05-20T14:24:31;10.55;;;8.13;;
15408;SDS011;7803;48.130;13.788;2023-05-20T14:27:33;8.55;;;7.63;;
15408;SDS011;7803;48.130;13.788;2023-05-20T14:30:36;10.55;;;8.10;;
15408;SDS011;7803;48.130;13.788;2023-05-20T14:33:38;11.50;;;8.35;;
15408;SDS011;7803;48.130;13.788;2023-05-20T14:36:41;8.85;;;7.55;;
15408;SDS011;7803;48.130;13.788;2023-05-20T14:39:43;8.95;;;7.90;;
15408;SDS011;7803;48.130;13.788;2023-05-20T14:42:46;11.13;;;7.70;;
15408;SDS011;7803;48.130;13.788;2023-05-20T14:45:48;13.18;;;8.25;;
15408;SDS011;7803;48.130;13.788;2023-05-20T14:48:50;10.40;;;8.00;;
15408;SDS011;7803;48.130;13.788;2023-05-20T14:51:53;8.68;;;7.78;;
15408;SDS011;7803;48.130;13.788;2023-05-20T14:54:55;9.07;;;7.60;;
15408;SDS011;7803;48.130;13.788;2023-05-20T14:57:57;11.32;;;8.35;;
15408;SDS011;7803;48.130;13.788;2023-05-20T15:00:59;8.40;;;7.60;;
15408;SDS011;7803;48.130;13.788;2023-05-20T15:04:01;9.00;;;8.10;;
15408;SDS011;7803;48.130;13.788;2023-05-20T15:07:05;12.30;;;7.78;;
15408;SDS011;7803;48.130;13.788;2023-05-20T15:10:07;9.82;;;7.68;;
15408;SDS011;7803;48.130;13.788;2023-05-20T15:13:09;8.85;;;7.80;;
15408;SDS011;7803;48.130;13.788;2023-05-20T15:16:11;11.10;;;7.80;;
15408;SDS011;7803;48.130;13.788;2023-05-20T15:19:14;8.55;;;7.50;;
15408;SDS011;7803;48.130;13.788;2023-05-20T15:22:18;8.15;;;7.35;;
15408;SDS011;7803;48.130;13.788;2023-05-20T15:25:20;9.52;;;7.85;;
15408;SDS011;7803;48.130;13.788;2023-05-20T15:28:22;10.20;;;7.95;;
15408;SDS011;7803;48.130;13.788;2023-05-20T15:31:24;8.98;;;7.28;;
15408;SDS011;7803;48.130;13.788;2023-05-20T15:34:26;10.25;;;7.53;;
15408;SDS011;7803;48.130;13.788;2023-05-20T15:37:29;8.68;;;7.55;;
15408;SDS011;7803;48.130;13.788;2023-05-20T15:40:31;10.20;;;8.05;;
15408;SDS011;7803;48.130;13.788;2023-05-20T15:43:33;8.48;;;7.57;;
15408;SDS011;7803;48.130;13.788;2023-05-20T15:46:35;11.07;;;7.63;;
15408;SDS011;7803;48.130;13.788;2023-05-20T15:49:37;12.00;;;7.80;;
15408;SDS011;7803;48.130;13.788;2023-05-20T15:52:41;11.15;;;8.10;;
15408;SDS011;7803;48.130;13.788;2023-05-20T15:55:43;13.13;;;8.20;;
15408;SDS011;7803;48.130;13.788;2023-05-20T15:58:45;11.57;;;7.72;;
15408;SDS011;7803;48.130;13.788;2023-05-20T16:01:47;9.45;;;7.13;;
15408;SDS011;7803;48.130;13.788;2023-05-20T16:04:49;9.13;;;7.55;;
15408;SDS011;7803;48.130;13.788;2023-05-20T16:07:53;11.27;;;7.75;;
15408;SDS011;7803;48.130;13.788;2023-05-20T16:10:56;9.43;;;8.20;;
15408;SDS011;7803;48.130;13.788;2023-05-20T16:13:58;9.00;;;7.43;;
15408;SDS011;7803;48.130;13.788;2023-05-20T16:17:00;8.45;;;7.53;;
15408;SDS011;7803;48.130;13.788;2023-05-20T16:20:02;12.07;;;7.90;;
15408;SDS011;7803;48.130;13.788;2023-05-20T16:23:07;10.82;;;7.88;;
15408;SDS011;7803;48.130;13.788;2023-05-20T16:26:09;8.90;;;7.72;;
15408;SDS011;7803;48.130;13.788;2023-05-20T16:29:11;9.95;;;8.20;;
15408;SDS011;7803;48.130;13.788;2023-05-20T16:32:13;8.57;;;7.65;;
15408;SDS011;7803;48.130;13.788;2023-05-20T16:35:19;8.60;;;7.70;;
15408;SDS011;7803;48.130;13.788;2023-05-20T16:38:22;10.52;;;7.53;;
15408;SDS011;7803;48.130;13.788;2023-05-20T16:41:24;8.18;;;7.40;;
15408;SDS011;7803;48.130;13.788;2023-05-20T16:44:26;9.90;;;7.72;;
15408;SDS011;7803;48.130;13.788;2023-05-20T16:47:29;9.32;;;7.60;;
15408;SDS011;7803;48.130;13.788;2023-05-20T16:50:32;9.20;;;7.88;;
15408;SDS011;7803;48.130;13.788;2023-05-20T16:53:35;8.55;;;7.43;;
15408;SDS011;7803;48.130;13.788;2023-05-20T16:56:37;8.07;;;7.28;;
15408;SDS011;7803;48.130;13.788;2023-05-20T16:59:40;7.78;;;7.10;;
15408;SDS011;7803;48.130;13.788;2023-05-20T17:02:42;8.60;;;7.80;;
15408;SDS011;7803;48.130;13.788;2023-05-20T17:05:44;7.82;;;7.13;;
15408;SDS011;7803;48.130;13.788;2023-05-20T17:08:47;8.88;;;7.97;;
15408;SDS011;7803;48.130;13.788;2023-05-20T17:11:49;9.10;;;7.75;;
15408;SDS011;7803;48.130;13.788;2023-05-20T17:14:53;9.38;;;8.35;;
15408;SDS011;7803;48.130;13.788;2023-05-20T17:17:55;8.50;;;7.47;;
15408;SDS011;7803;48.130;13.788;2023-05-20T17:20:57;8.13;;;7.35;;
15408;SDS011;7803;48.130;13.788;2023-05-20T17:24:00;8.68;;;7.78;;
15408;SDS011;7803;48.130;13.788;2023-05-20T17:27:03;8.55;;;7.25;;
15408;SDS011;7803;48.130;13.788;2023-05-20T17:30:06;8.15;;;7.38;;
15408;SDS011;7803;48.130;13.788;2023-05-20T17:33:08;7.80;;;7.00;;
15408;SDS011;7803;48.130;13.788;2023-05-20T17:36:10;7.70;;;7.00;;
15408;SDS011;7803;48.130;13.788;2023-05-20T17:39:14;8.80;;;7.68;;
15408;SDS011;7803;48.130;13.788;2023-05-20T17:42:16;8.80;;;7.40;;
15408;SDS011;7803;48.130;13.788;2023-05-20T17:45:18;8.05;;;7.22;;
15408;SDS011;7803;48.130;13.788;2023-05-20T17:48:20;8.20;;;7.40;;
15408;SDS011;7803;48.130;13.788;2023-05-20T17:51:22;7.93;;;7.18;;
15408;SDS011;7803;48.130;13.788;2023-05-20T17:54:25;8.98;;;7.55;;
15408;SDS011;7803;48.130;13.788;2023-05-20T17:57:27;8.07;;;7.28;;
15408;SDS011;7803;48.130;13.788;2023-05-20T18:00:29;7.43;;;6.75;;
15408;SDS011;7803;48.130;13.788;2023-05-20T18:03:33;7.40;;;6.80;;
15408;SDS011;7803;48.130;13.788;2023-05-20T18:06:35;7.50;;;6.80;;
15408;SDS011;7803;48.130;13.788;2023-05-20T18:09:38;8.23;;;7.38;;
15408;SDS011;7803;48.130;13.788;2023-05-20T18:12:40;7.68;;;6.97;;
15408;SDS011;7803;48.130;13.788;2023-05-20T18:15:44;8.20;;;7.47;;
15408;SDS011;7803;48.130;13.788;2023-05-20T18:18:47;8.00;;;7.20;;